Back Gate, Arkansas
Current Conditions -  °F | °C
As of 9:53 AM on Saturday 20 Dec 2014 (Local Time) from KLLQ Reporting Station
Clear Clear  
Wind Chill: 41°   Ceiling: Unl
Heat Index: 45°   Visibility: 10mi
Dew Point: 37°   Wind: 7mph
Humidity: 74%   Direction: 70°ENE
Pressure: 30.28"   Gusts: NA
Location:  33.9283°N, 91.468°W
Report Text: KLLQ 201553Z AUTO 07006KT 10SM CLR 07/03 A3028 RMK AO2 SLP253 T00720028
Loading
Personal Weather Stations






























Interactive Weather Map New forecast layout! Learn more

10-Day Weather Forecast

Advertisements
Track Severe Weather on mobile